createdAt,value
2023-03-21T00:00:38.023Z,24.00
2023-03-21T00:03:43.335Z,24.00
2023-03-21T00:06:46.667Z,24.00
2023-03-21T00:09:52.429Z,23.00
2023-03-21T00:12:58.745Z,24.00
2023-03-21T00:16:19.310Z,23.00
2023-03-21T00:19:29.635Z,24.00
2023-03-21T00:22:35.119Z,23.40
2023-03-21T00:25:40.336Z,24.33
2023-03-21T00:28:44.817Z,22.00
2023-03-21T00:31:49.382Z,26.80
2023-03-21T00:38:16.702Z,25.40
2023-03-21T00:41:39.150Z,23.00
2023-03-21T00:44:45.007Z,23.00
2023-03-21T00:47:48.301Z,25.00
2023-03-21T00:50:54.215Z,23.00
2023-03-21T00:53:59.583Z,24.00
2023-03-21T00:57:06.162Z,24.00
2023-03-21T01:00:12.091Z,24.40
2023-03-21T01:03:24.771Z,23.00
2023-03-21T01:06:28.656Z,24.00
2023-03-21T01:09:32.916Z,23.00
2023-03-21T01:12:37.551Z,23.00
2023-03-21T01:15:45.818Z,24.00
2023-03-21T01:18:49.078Z,22.20
2023-03-21T01:21:52.610Z,21.60
2023-03-21T01:25:05.669Z,25.00
2023-03-21T01:28:13.689Z,23.00
2023-03-21T01:31:18.473Z,23.00
2023-03-21T01:34:22.071Z,22.00
2023-03-21T01:37:26.693Z,22.25
2023-03-21T01:40:31.792Z,23.40
2023-03-21T01:43:47.838Z,22.60
2023-03-21T01:47:11.127Z,24.00
2023-03-21T01:50:53.503Z,23.00
2023-03-21T01:54:01.854Z,23.60
2023-03-21T01:57:13.188Z,24.00
2023-03-21T02:00:19.014Z,23.75
2023-03-21T02:03:34.964Z,25.60
2023-03-21T02:07:02.037Z,23.25
2023-03-21T02:10:17.853Z,24.00
2023-03-21T02:13:25.452Z,23.40
2023-03-21T02:16:42.559Z,20.60
2023-03-21T02:20:16.626Z,23.25
2023-03-21T02:23:58.375Z,23.00
2023-03-21T02:27:11.891Z,23.50
2023-03-21T02:30:52.088Z,22.00
2023-03-21T02:34:33.876Z,23.40
2023-03-21T02:37:46.755Z,22.00
2023-03-21T02:41:07.666Z,22.50
2023-03-21T02:44:24.527Z,23.00
2023-03-21T02:47:33.608Z,23.00
2023-03-21T02:50:43.740Z,21.75
2023-03-21T02:54:16.248Z,22.00
2023-03-21T02:57:17.707Z,23.20
2023-03-21T03:00:25.084Z,23.00
2023-03-21T03:03:34.529Z,23.00
2023-03-21T03:06:49.462Z,23.00
2023-03-21T03:10:09.527Z,23.50
2023-03-21T03:13:22.908Z,26.00
2023-03-21T03:16:36.843Z,23.00
2023-03-21T03:19:51.457Z,24.00
2023-03-21T03:23:05.744Z,22.00
2023-03-21T03:26:16.351Z,23.00
2023-03-21T03:29:23.164Z,24.00
2023-03-21T03:32:33.124Z,25.00
2023-03-21T03:35:36.601Z,24.00
2023-03-21T03:38:41.811Z,24.50
2023-03-21T03:42:07.910Z,26.00
2023-03-21T03:45:17.795Z,26.00
2023-03-21T03:48:27.819Z,26.00
2023-03-21T03:51:45.359Z,26.00
2023-03-21T03:55:00.375Z,24.00
2023-03-21T03:58:21.172Z,27.00
2023-03-21T04:01:26.746Z,27.00
2023-03-21T04:04:33.517Z,27.40
2023-03-21T04:07:37.233Z,27.00
2023-03-21T04:10:40.777Z,26.00
2023-03-21T04:13:46.152Z,24.40
2023-03-21T04:16:56.118Z,27.00
2023-03-21T04:20:10.941Z,26.00
2023-03-21T04:23:16.386Z,27.40
2023-03-21T04:26:22.413Z,25.00
2023-03-21T04:29:46.957Z,26.00
2023-03-21T04:33:03.688Z,26.40
2023-03-21T04:36:26.029Z,26.60
2023-03-21T04:39:31.652Z,26.00
2023-03-21T04:42:36.015Z,24.00
2023-03-21T04:45:40.668Z,23.60
2023-03-21T04:48:45.212Z,23.00
2023-03-21T04:51:48.727Z,24.00
2023-03-21T04:54:55.505Z,24.00
2023-03-21T04:57:59.753Z,23.00
2023-03-21T05:01:06.238Z,23.00
2023-03-21T05:04:09.810Z,23.00
2023-03-21T05:07:13.454Z,22.00
2023-03-21T05:10:17.552Z,21.80
2023-03-21T05:13:20.954Z,22.00
2023-03-21T05:16:30.648Z,24.00
2023-03-21T05:19:40.595Z,22.00
2023-03-21T05:22:46.329Z,22.50
2023-03-21T05:25:51.907Z,22.00
2023-03-21T05:29:09.510Z,22.00
2023-03-21T05:32:14.922Z,22.00
2023-03-21T05:35:18.502Z,22.00
2023-03-21T05:38:21.879Z,22.00
2023-03-21T05:41:28.092Z,20.00
2023-03-21T05:44:31.363Z,21.00
2023-03-21T05:47:37.696Z,21.00
2023-03-21T05:50:41.468Z,20.60
2023-03-21T05:53:53.444Z,20.00
2023-03-21T05:56:58.222Z,20.00
2023-03-21T06:00:24.931Z,20.00
2023-03-21T06:03:54.206Z,18.00
2023-03-21T06:06:59.656Z,17.50
2023-03-21T06:10:03.031Z,17.00
2023-03-21T06:13:06.565Z,13.50
2023-03-21T06:16:10.879Z,16.00
2023-03-21T06:19:16.494Z,15.60
2023-03-21T06:22:35.346Z,15.75
2023-03-21T06:25:39.601Z,14.80
2023-03-21T06:28:43.197Z,15.60
2023-03-21T06:31:46.785Z,12.00
2023-03-21T06:34:51.630Z,13.80
2023-03-21T06:37:55.265Z,14.00
2023-03-21T06:40:58.977Z,12.00
2023-03-21T06:44:06.550Z,9.60
2023-03-21T06:47:16.913Z,9.80
2023-03-21T06:50:23.958Z,9.80
2023-03-21T06:53:28.185Z,11.80
2023-03-21T06:56:47.104Z,9.00
2023-03-21T06:59:57.614Z,10.00
2023-03-21T07:03:01.943Z,8.60
2023-03-21T07:06:09.785Z,10.00
2023-03-21T07:09:14.695Z,11.00
2023-03-21T07:12:18.630Z,8.40
2023-03-21T07:15:39.350Z,9.00
2023-03-21T07:18:42.850Z,9.00
2023-03-21T07:21:49.643Z,8.00
2023-03-21T07:25:04.086Z,7.40
2023-03-21T07:28:13.866Z,9.00
2023-03-21T07:31:19.549Z,8.00
2023-03-21T07:34:24.902Z,8.00
2023-03-21T07:37:29.571Z,9.00
2023-03-21T07:40:33.794Z,7.80
2023-03-21T07:43:39.209Z,7.00
2023-03-21T07:46:45.994Z,8.00
2023-03-21T07:49:49.157Z,7.00
2023-03-21T07:52:54.532Z,8.00
2023-03-21T07:55:57.827Z,9.20
2023-03-21T07:59:01.141Z,7.00
2023-03-21T08:02:04.409Z,8.75
2023-03-21T08:05:08.251Z,7.60
2023-03-21T08:08:13.153Z,8.00
2023-03-21T08:11:18.199Z,8.50
2023-03-21T08:14:21.430Z,9.00
2023-03-21T08:17:24.673Z,11.00
2023-03-21T08:20:28.711Z,8.00
2023-03-21T08:23:33.352Z,6.00
2023-03-21T08:26:37.191Z,7.40
2023-03-21T08:29:42.475Z,5.60
2023-03-21T08:32:45.783Z,5.80
2023-03-21T08:35:49.420Z,6.60
2023-03-21T08:38:57.263Z,8.00
2023-03-21T08:42:00.818Z,8.40
2023-03-21T08:45:05.075Z,7.00
2023-03-21T08:48:08.327Z,9.00
2023-03-21T08:51:11.727Z,10.40
2023-03-21T08:54:24.129Z,11.60
2023-03-21T08:57:27.455Z,10.00
2023-03-21T09:00:31.165Z,9.40
2023-03-21T09:03:34.531Z,9.00
2023-03-21T09:06:38.107Z,9.00
2023-03-21T09:09:42.849Z,8.00
2023-03-21T09:12:46.300Z,11.00
2023-03-21T09:15:49.806Z,10.75
2023-03-21T09:18:55.894Z,10.00
2023-03-21T09:21:59.878Z,8.50
2023-03-21T09:25:07.603Z,13.60
2023-03-21T09:28:10.825Z,11.00
2023-03-21T09:31:16.707Z,11.80
2023-03-21T09:34:19.949Z,11.00
2023-03-21T09:37:23.221Z,11.00
2023-03-21T09:40:41.567Z,11.40
2023-03-21T09:43:57.908Z,14.00
2023-03-21T09:47:10.588Z,11.40
2023-03-21T09:50:20.559Z,11.00
2023-03-21T09:53:27.747Z,12.00
2023-03-21T09:56:33.273Z,11.33
2023-03-21T09:59:40.403Z,12.00
2023-03-21T10:02:48.065Z,12.00
2023-03-21T10:05:57.548Z,14.00
2023-03-21T10:09:07.521Z,17.40
2023-03-21T10:12:30.660Z,14.00
2023-03-21T10:15:34.055Z,18.00
2023-03-21T10:18:39.251Z,18.40
2023-03-21T10:22:03.370Z,18.00
2023-03-21T10:25:09.211Z,15.25
2023-03-21T10:28:19.835Z,17.40
2023-03-21T10:31:26.543Z,16.40
2023-03-21T10:34:37.133Z,18.00
2023-03-21T10:37:42.197Z,16.00
2023-03-21T10:40:45.742Z,15.00
2023-03-21T10:44:07.120Z,17.60
2023-03-21T10:47:11.111Z,17.67
2023-03-21T10:50:17.818Z,19.00
2023-03-21T10:53:24.306Z,20.00
2023-03-21T10:56:30.406Z,17.00
2023-03-21T10:59:44.278Z,16.60
2023-03-21T11:02:50.117Z,17.00
2023-03-21T11:05:57.240Z,18.40
2023-03-21T11:09:06.271Z,17.00
2023-03-21T11:12:13.108Z,17.00
2023-03-21T11:15:29.037Z,20.00
2023-03-21T11:18:40.630Z,17.00
2023-03-21T11:21:44.766Z,18.60
2023-03-21T11:24:52.417Z,19.00
2023-03-21T11:27:56.736Z,19.00
2023-03-21T11:31:03.551Z,18.00
2023-03-21T11:34:09.347Z,18.00
2023-03-21T11:37:20.961Z,18.40
2023-03-21T11:40:26.629Z,17.80
2023-03-21T11:43:33.075Z,19.80
2023-03-21T11:46:42.319Z,19.00
2023-03-21T11:49:48.156Z,17.60
2023-03-21T11:53:07.399Z,17.00
2023-03-21T11:56:23.919Z,18.00
2023-03-21T11:59:40.681Z,17.00
2023-03-21T12:03:12.142Z,16.00
2023-03-21T12:06:26.535Z,16.00
2023-03-21T12:09:39.407Z,17.60
2023-03-21T12:12:50.185Z,18.00
2023-03-21T12:16:06.636Z,21.00
2023-03-21T12:19:41.404Z,19.00
2023-03-21T12:22:58.414Z,19.75
2023-03-21T12:26:11.956Z,20.00
2023-03-21T12:29:37.769Z,22.00
2023-03-21T12:33:05.372Z,22.00
2023-03-21T12:36:20.223Z,20.00
2023-03-21T12:39:30.211Z,22.00
2023-03-21T12:42:53.999Z,22.00
2023-03-21T12:46:01.266Z,21.40
2023-03-21T12:49:10.013Z,24.00
2023-03-21T12:52:20.529Z,23.40
2023-03-21T12:55:26.636Z,24.00
2023-03-21T12:58:32.735Z,23.75
2023-03-21T13:01:40.042Z,22.20
2023-03-21T13:04:48.643Z,23.00
2023-03-21T13:08:00.321Z,22.00
2023-03-21T13:11:05.993Z,23.00
2023-03-21T13:14:17.255Z,22.00
2023-03-21T13:17:28.462Z,22.00
2023-03-21T13:20:39.930Z,20.20
2023-03-21T13:23:59.892Z,21.75
2023-03-21T13:27:06.960Z,22.00
2023-03-21T13:30:22.417Z,21.60
2023-03-21T13:33:31.712Z,22.00
2023-03-21T13:36:38.962Z,20.80
2023-03-21T13:39:47.342Z,23.00
2023-03-21T13:42:54.222Z,22.00
2023-03-21T13:45:57.507Z,24.00
2023-03-21T13:49:02.771Z,21.00
2023-03-21T13:52:26.949Z,26.00
2023-03-21T13:55:38.378Z,24.00
2023-03-21T13:58:52.989Z,24.00
2023-03-21T14:02:02.544Z,23.00
2023-03-21T14:05:09.497Z,23.00
2023-03-21T14:08:31.317Z,24.00
2023-03-21T14:11:46.717Z,24.00
2023-03-21T14:14:54.215Z,23.00
2023-03-21T14:18:06.386Z,24.40
2023-03-21T14:21:24.795Z,22.80
2023-03-21T14:24:28.301Z,23.00
2023-03-21T14:27:37.858Z,21.40
2023-03-21T14:30:43.450Z,23.75
2023-03-21T14:33:50.137Z,24.00
2023-03-21T14:37:00.598Z,20.00
2023-03-21T14:40:09.202Z,20.00
2023-03-21T14:43:13.957Z,20.60
2023-03-21T14:46:17.556Z,20.00
2023-03-21T14:49:26.028Z,19.50
2023-03-21T14:52:33.219Z,21.00
2023-03-21T14:55:43.631Z,21.00
2023-03-21T14:58:49.458Z,20.00
2023-03-21T15:01:55.292Z,20.00
2023-03-21T15:05:06.842Z,20.00
2023-03-21T15:08:15.531Z,20.00
2023-03-21T15:11:18.818Z,21.60
2023-03-21T15:14:28.013Z,20.00
2023-03-21T15:17:31.705Z,20.00
2023-03-21T15:20:38.843Z,20.00
2023-03-21T15:23:45.855Z,20.00
2023-03-21T15:26:51.154Z,17.00
2023-03-21T15:29:56.885Z,20.00
2023-03-21T15:33:07.970Z,21.00
2023-03-21T15:36:11.581Z,20.00
2023-03-21T15:39:17.357Z,19.60
2023-03-21T15:42:31.369Z,21.80
2023-03-21T15:45:47.056Z,19.50
2023-03-21T15:48:52.076Z,22.00
2023-03-21T15:52:00.207Z,22.60
2023-03-21T15:55:03.476Z,23.00
2023-03-21T15:58:13.312Z,23.00
2023-03-21T16:01:20.395Z,23.00
2023-03-21T16:04:24.476Z,24.00
2023-03-21T16:07:28.000Z,23.00
2023-03-21T16:11:10.414Z,23.20
2023-03-21T16:14:13.600Z,24.00
2023-03-21T16:17:30.011Z,25.00
2023-03-21T16:20:36.974Z,24.00
2023-03-21T16:23:40.474Z,24.00
2023-03-21T16:26:47.937Z,26.00
2023-03-21T16:29:51.592Z,24.00
2023-03-21T16:32:57.548Z,26.00
2023-03-21T16:36:00.894Z,27.00
2023-03-21T16:39:14.392Z,25.00
2023-03-21T16:42:17.668Z,25.00
2023-03-21T16:45:20.937Z,25.00
2023-03-21T16:48:25.631Z,27.50
2023-03-21T16:51:34.213Z,24.00
2023-03-21T16:54:37.421Z,25.60
2023-03-21T16:57:40.717Z,25.00
2023-03-21T17:00:43.971Z,26.00
2023-03-21T17:03:49.271Z,27.00
2023-03-21T17:06:54.114Z,25.00
2023-03-21T17:09:57.418Z,27.00
2023-03-21T17:13:00.791Z,26.80
2023-03-21T17:16:04.089Z,24.75
2023-03-21T17:19:13.998Z,24.00
2023-03-21T17:22:17.723Z,27.00
2023-03-21T17:25:21.121Z,27.80
2023-03-21T17:28:24.508Z,22.20
2023-03-21T17:31:32.799Z,27.00
2023-03-21T17:34:37.497Z,27.40
2023-03-21T17:37:40.802Z,26.00
2023-03-21T17:40:44.357Z,26.80
2023-03-21T17:43:48.033Z,27.20
2023-03-21T17:46:52.505Z,26.00
2023-03-21T17:49:57.280Z,25.80
2023-03-21T17:53:00.614Z,27.20
2023-03-21T17:56:03.826Z,24.00
2023-03-21T17:59:09.067Z,28.00
2023-03-21T18:02:12.299Z,26.60
2023-03-21T18:05:17.322Z,26.00
2023-03-21T18:08:20.558Z,27.00
2023-03-21T18:11:24.931Z,27.00
2023-03-21T18:14:29.411Z,28.00
2023-03-21T18:17:33.992Z,28.00
2023-03-21T18:20:52.103Z,29.00
2023-03-21T18:23:57.089Z,29.00
2023-03-21T18:27:00.345Z,28.00
2023-03-21T18:30:28.789Z,29.00
2023-03-21T18:33:28.588Z,29.80
2023-03-21T18:36:34.075Z,28.00
2023-03-21T18:39:38.440Z,29.00
2023-03-21T18:43:19.987Z,27.80
2023-03-21T18:46:07.249Z,29.00
2023-03-21T18:49:52.062Z,30.00
2023-03-21T18:52:35.535Z,31.00
2023-03-21T18:55:46.097Z,29.00
2023-03-21T18:58:49.973Z,29.00
2023-03-21T19:01:53.647Z,29.00
2023-03-21T19:04:57.952Z,28.00
2023-03-21T19:08:02.797Z,29.00
2023-03-21T19:11:07.149Z,30.00
2023-03-21T19:14:10.556Z,31.00
2023-03-21T19:18:15.414Z,30.00
2023-03-21T19:20:38.262Z,29.80
2023-03-21T19:24:20.778Z,28.00
2023-03-21T19:27:06.377Z,29.00
2023-03-21T19:30:15.572Z,32.00
2023-03-21T19:33:20.137Z,30.00
2023-03-21T19:36:23.645Z,30.00
2023-03-21T19:39:28.494Z,29.00
2023-03-21T19:42:32.466Z,31.00
2023-03-21T19:45:36.245Z,31.00
2023-03-21T19:48:40.743Z,31.00
2023-03-21T19:51:44.027Z,30.00
2023-03-21T19:54:48.837Z,31.60
2023-03-21T19:57:53.693Z,30.00
2023-03-21T20:00:57.040Z,30.00
2023-03-21T20:04:00.684Z,32.00
2023-03-21T20:07:03.966Z,30.40
2023-03-21T20:10:11.045Z,31.00
2023-03-21T20:13:14.324Z,30.50
2023-03-21T20:16:18.353Z,31.80
2023-03-21T20:19:23.073Z,28.00
2023-03-21T20:22:46.004Z,31.00
2023-03-21T20:25:50.999Z,30.80
2023-03-21T20:29:22.947Z,31.00
2023-03-21T20:32:21.015Z,31.40
2023-03-21T20:35:55.290Z,30.00
2023-03-21T20:38:47.933Z,28.00
2023-03-21T20:41:54.758Z,31.00
2023-03-21T20:45:00.887Z,32.00
2023-03-21T20:48:04.927Z,31.50
2023-03-21T20:52:14.702Z,31.25
2023-03-21T20:54:34.940Z,32.25
2023-03-21T20:57:40.795Z,33.00
2023-03-21T21:00:44.972Z,31.00
2023-03-21T21:03:49.540Z,30.00
2023-03-21T21:06:54.093Z,31.00
2023-03-21T21:09:57.839Z,34.00
2023-03-21T21:13:02.510Z,31.00
2023-03-21T21:16:06.615Z,31.00
2023-03-21T21:19:09.976Z,31.60
2023-03-21T21:22:13.268Z,30.00
2023-03-21T21:25:16.885Z,31.00
2023-03-21T21:28:32.152Z,31.00
2023-03-21T21:31:35.518Z,30.00
2023-03-21T21:34:39.146Z,31.00
2023-03-21T21:37:43.042Z,31.00
2023-03-21T21:40:46.790Z,30.25
2023-03-21T21:43:52.195Z,30.00
2023-03-21T21:46:55.539Z,31.00
2023-03-21T21:49:58.826Z,31.00
2023-03-21T21:53:04.425Z,31.00
2023-03-21T21:56:08.630Z,31.00
2023-03-21T21:59:16.120Z,30.00
2023-03-21T22:02:19.421Z,30.00
2023-03-21T22:05:22.672Z,31.40
2023-03-21T22:08:26.006Z,30.00
2023-03-21T22:11:29.281Z,30.00
2023-03-21T22:14:34.355Z,28.20
2023-03-21T22:17:37.604Z,31.00
2023-03-21T22:20:41.226Z,30.40
2023-03-21T22:23:44.924Z,29.60
2023-03-21T22:26:48.295Z,30.25
2023-03-21T22:29:53.050Z,30.00
2023-03-21T22:33:08.583Z,30.00
2023-03-21T22:36:13.631Z,31.00
2023-03-21T22:39:17.252Z,29.00
2023-03-21T22:42:20.598Z,29.60
2023-03-21T22:45:25.207Z,31.00
2023-03-21T22:48:30.241Z,29.80
2023-03-21T22:51:33.586Z,28.80
2023-03-21T22:54:37.057Z,32.00
2023-03-21T22:57:40.343Z,31.00
2023-03-21T23:00:45.079Z,30.00
2023-03-21T23:03:48.806Z,30.00
2023-03-21T23:06:52.007Z,31.00
2023-03-21T23:09:55.181Z,30.00
2023-03-21T23:12:58.355Z,31.20
2023-03-21T23:16:06.083Z,32.00
2023-03-21T23:19:10.493Z,31.00
2023-03-21T23:22:13.608Z,32.50
2023-03-21T23:25:17.066Z,31.00
2023-03-21T23:28:20.365Z,30.00
2023-03-21T23:31:27.279Z,30.00
2023-03-21T23:34:30.485Z,30.20
2023-03-21T23:37:33.974Z,31.40
2023-03-21T23:40:40.053Z,32.20
2023-03-21T23:43:44.370Z,31.00
2023-03-21T23:46:49.034Z,31.60
2023-03-21T23:49:52.954Z,30.00
2023-03-21T23:52:56.201Z,31.50
2023-03-21T23:55:59.474Z,31.75
2023-03-21T23:59:02.957Z,31.40
